x

North Huron - 32nm Northeast Of Alpena, Mi (45003) Wave Buoy

12:50am - Mon 21st Aug 2017 All times are CDT. -5 hours from GMT.

  • Sig Wave height 1.6ft
  • Swell Direction
  • Peak Period 3s
  • Average Period 3s
  • Wind
    11mph, 13mph gusts
  • Sea Temp 66°f
  • Air Temp 69°f
  • Sea Pressure 1015.4mb
  • North Huron - 32nm Northeast Of Alpena, Mi
  • North Huron - 32nm Northeast Of Alpena, Mi

More Historic Weather Station data

Upgrade to MSW Pro to gain access to the past 30 days of data for over 8000 Wavebouys and Weather Stations around the globe.

Join

Comparision Forecast

View Surf forecast
   
Mon 08/21 12:50am 1.6ft 3s 3s 11 13 mph 1015.4mb 66f 69f
Sun 08/20 11:50pm 2ft 4s 4s 13 16 mph 1015mb 66f 69f
10:50pm 2ft 5s 4s 13 16 mph 1014.9mb 66f 70f
9:50pm 2.5ft 5s 4s 13 16 mph 1014.8mb 66f 70f
7:50pm 2.5ft 4s 4s 18 20 mph 1014.1mb 67f 71f
5:50pm 1.6ft 4s 3s 16 18 mph 1014.1mb 67f 70f
4:50pm 1.3ft 3s 3s 16 18 mph 1014.3mb 67f 70f
3:50pm 1ft 3s 3s 13 18 mph 1014.3mb 67f 69f
2:50pm 0.7ft  -  3s 11 11 mph 1014.7mb 67f 69f
1:50pm 0.7ft  -  3s 9 9 mph 1015.5mb 67f 68f
12:50pm 0.7ft  -  3s 9 11 mph 1015.8mb 67f 67f
11:50am 0.7ft  -  3s 11 11 mph 1015.8mb 67f 67f
10:50am 0.7ft  -  3s 7 9 mph 1015.8mb 66f 67f
9:50am 0.7ft  -  3s 7 7 mph 1015.6mb 66f 67f
8:50am 0.3ft  -  3s 9 9 mph 1015.8mb 66f 67f
7:50am 0.7ft  -  3s 7 7 mph 1015.3mb 66f 66f
6:50am 0.3ft  -  3s 7 9 mph 1014.5mb 66f 66f
5:50am 0.3ft  -  3s 4 7 mph 1014.2mb 66f 66f
4:50am 0.7ft  -  3s 4 7 mph 1013.7mb 66f 67f
3:50am 0.7ft  -  3s 7 7 mph 1013.5mb 66f 66f
2:50am 0.7ft  -  3s 7 7 mph 1013.2mb 66f 67f
1:50am 0.7ft  -  3s 7 9 mph 1012.9mb 66f 67f
12:50am 1ft 3s 3s 7 7 mph 1012.9mb 66f 66f
Sat 08/19 11:50pm 1ft 3s 3s 9 11 mph 1012.7mb 66f 67f
10:50pm 1ft 3s 3s 13 16 mph 1012.2mb 66f 67f
9:50pm 1ft 3s 3s 7 9 mph 1011.9mb 66f 67f
8:50pm 1ft 4s 3s 9 11 mph 1011.4mb 66f 66f
7:50pm 1ft 4s 4s 11 13 mph 1010.9mb 66f 66f
6:50pm 1.3ft 4s 4s 11 16 mph 1010.7mb 66f 67f
5:50pm 1.6ft 5s 4s 2 4 mph 1010.4mb 66f 67f
4:50pm 1.6ft 4s 4s 4 4 mph 1010.4mb 66f 67f
3:50pm 2ft 5s 4s 11 13 mph 1010.4mb 66f 67f
2:50pm 2.5ft 5s 4s 11 13 mph 1010.4mb 66f 67f
1:50pm 2.5ft 5s 4s 16 20 mph 1010.4mb 66f 66f
12:50pm 2.5ft 5s 4s 16 18 mph 1010.1mb 65f 65f
11:50am 3ft 5s 4s 16 18 mph 1009.9mb 65f 64f
10:50am 2.5ft 5s 4s 18 20 mph 1009.8mb 65f 64f
9:50am 3.5ft 5s 4s 16 18 mph 1009.3mb 65f 64f
8:50am 3.5ft 5s 4s 20 22 mph 1008.7mb 65f 64f
7:50am 3.5ft 5s 4s 20 22 mph 1008.2mb 65f 64f
6:50am 4.5ft 6s 4s 20 25 mph 1007.5mb 65f 64f
5:50am 4ft 5s 4s 20 25 mph 1006.8mb 65f 64f
4:50am 4.5ft 6s 4s 20 25 mph 1006.4mb 65f 63f
3:50am 4.5ft 6s 4s 18 22 mph 1006.5mb 65f 63f
2:50am 4.5ft 6s 4s 20 22 mph 1006.3mb 65f 64f
1:50am 4.5ft 5s 5s 20 25 mph 1006.5mb 65f 64f
12:50am 5ft 6s 5s 20 25 mph 1006.5mb 65f 64f
Fri 08/18 11:50pm 5ft 6s 5s 22 27 mph 1006.3mb 65f 64f
10:50pm 5ft 6s 5s 22 27 mph 1006.1mb 66f 64f
9:50pm 6ft 6s 5s 25 29 mph 1006.1mb 66f 64f
8:50pm 5.5ft 6s 5s 25 29 mph 1005.7mb 66f 65f
7:50pm 5ft 6s 5s 22 29 mph 1005.4mb 66f 64f
6:50pm 5ft 6s 5s 25 29 mph 1005.3mb 66f 65f
5:50pm 5ft 6s 5s 25 29 mph 1004.5mb 66f 65f
4:50pm 5ft 6s 5s 25 29 mph 1004mb 66f 65f
3:50pm 5ft 5s 4s 27 34 mph 1003.4mb 66f 65f
2:50pm 4.5ft 5s 4s 27 31 mph 1002.9mb 67f 65f
1:50pm 4.5ft 5s 4s 25 29 mph 1002.2mb 67f 66f
12:50pm 2.5ft 5s 4s 18 20 mph 1001.7mb 67f 66f
11:50am 2.5ft 5s 4s 13 16 mph 1001.4mb 67f 68f
10:50am 3ft 5s 4s 16 18 mph 1000.8mb 67f 68f
9:50am 3ft 5s 4s 18 22 mph 1000.5mb 66f 68f
8:50am 2.5ft 5s 4s 18 20 mph 1000.2mb 66f 68f
7:50am 2.5ft 5s 4s 20 22 mph 1000mb 66f 68f
6:50am 3ft 4s 4s 20 22 mph 999.7mb 66f 68f
5:50am 3ft 6s 4s 18 20 mph 999.8mb 66f 68f
4:50am 2.5ft 5s 4s 18 20 mph 999.6mb 67f 68f
3:50am 3ft 6s 4s 16 18 mph 999.6mb 67f 68f
2:50am 3.5ft 6s 4s 13 16 mph 999.9mb 67f 69f
1:50am 3.5ft 6s 4s 13 18 mph 1000.2mb 67f 69f
12:50am 3.5ft 6s 4s 13 18 mph 1000.7mb 67f 69f
Thu 08/17 11:50pm 3.5ft 6s 4s 16 16 mph 1001mb 67f 69f
10:50pm 4ft 6s 5s 13 16 mph 1001.2mb 66f 68f
9:50pm 4ft 6s 4s 18 25 mph 1001.7mb 66f 69f
8:50pm 4.5ft 6s 5s 18 20 mph 1002.3mb 66f 68f
7:50pm 4.5ft 6s 5s 16 18 mph 1002.7mb 66f 67f
6:50pm 4.5ft 5s 5s 16 20 mph 1003.3mb 66f 67f
5:50pm 4.5ft 6s 5s 16 18 mph 1004.1mb 66f 67f
4:50pm 4.5ft 5s 5s 18 20 mph 1005mb 66f 67f
3:50pm 5ft 6s 5s 20 25 mph 1005.4mb 66f 66f
2:50pm 5ft 5s 5s 25 29 mph 1005.7mb 66f 66f
1:50pm 4ft 4s 4s 22 29 mph 1007.3mb 66f 66f
12:50pm 3ft 4s 4s 22 29 mph 1008mb 66f 66f
11:50am 2.5ft 4s 4s 22 27 mph 1008.8mb 67f 67f
10:50am 2.5ft 4s 4s 22 27 mph 1009.7mb 67f 65f
9:50am 2.5ft 4s 4s 16 20 mph 1011.3mb 67f 66f
8:50am 2.5ft 4s 4s 18 20 mph 1011.4mb 67f 67f
7:50am 2.5ft 4s 4s 18 22 mph 1011.3mb 67f 67f